sensor_id;sensor_type;location;lat;lon;timestamp;temperature;humidity
29551;DHT22;16488;52.396;10.696;2023-05-07T00:02:23;9.90;99.90
29551;DHT22;16488;52.396;10.696;2023-05-07T00:04:49;9.90;99.90
29551;DHT22;16488;52.396;10.696;2023-05-07T00:07:14;9.90;99.90
29551;DHT22;16488;52.396;10.696;2023-05-07T00:09:40;9.90;99.90
29551;DHT22;16488;52.396;10.696;2023-05-07T00:12:05;10.00;99.90
29551;DHT22;16488;52.396;10.696;2023-05-07T00:14:31;10.00;99.90
29551;DHT22;16488;52.396;10.696;2023-05-07T00:16:57;9.90;99.90
29551;DHT22;16488;52.396;10.696;2023-05-07T00:19:22;9.90;99.90
29551;DHT22;16488;52.396;10.696;2023-05-07T00:21:48;9.90;99.90
29551;DHT22;16488;52.396;10.696;2023-05-07T00:24:13;9.90;99.90
29551;DHT22;16488;52.396;10.696;2023-05-07T00:26:39;10.00;99.90
29551;DHT22;16488;52.396;10.696;2023-05-07T00:29:04;10.00;99.90
29551;DHT22;16488;52.396;10.696;2023-05-07T00:31:30;10.00;99.90
29551;DHT22;16488;52.396;10.696;2023-05-07T00:33:55;10.00;99.90
29551;DHT22;16488;52.396;10.696;2023-05-07T00:36:21;10.00;99.90
29551;DHT22;16488;52.396;10.696;2023-05-07T00:38:46;9.90;99.90
29551;DHT22;16488;52.396;10.696;2023-05-07T00:41:12;9.90;99.90
29551;DHT22;16488;52.396;10.696;2023-05-07T00:43:37;9.90;99.90
29551;DHT22;16488;52.396;10.696;2023-05-07T00:46:03;9.90;99.90
29551;DHT22;16488;52.396;10.696;2023-05-07T00:48:28;9.90;99.90
29551;DHT22;16488;52.396;10.696;2023-05-07T00:50:54;9.80;99.90
29551;DHT22;16488;52.396;10.696;2023-05-07T00:53:20;9.80;99.90
29551;DHT22;16488;52.396;10.696;2023-05-07T00:55:45;9.70;99.90
29551;DHT22;16488;52.396;10.696;2023-05-07T00:58:11;9.70;99.90
29551;DHT22;16488;52.396;10.696;2023-05-07T01:00:36;9.70;99.90
29551;DHT22;16488;52.396;10.696;2023-05-07T01:03:02;9.60;99.90
29551;DHT22;16488;52.396;10.696;2023-05-07T01:05:28;9.60;99.90
29551;DHT22;16488;52.396;10.696;2023-05-07T01:07:54;9.60;99.90
29551;DHT22;16488;52.396;10.696;2023-05-07T01:10:20;9.60;99.90
29551;DHT22;16488;52.396;10.696;2023-05-07T01:12:46;9.50;99.90
29551;DHT22;16488;52.396;10.696;2023-05-07T01:15:12;9.60;99.90
29551;DHT22;16488;52.396;10.696;2023-05-07T01:17:39;9.60;99.90
29551;DHT22;16488;52.396;10.696;2023-05-07T01:20:05;9.60;99.90
29551;DHT22;16488;52.396;10.696;2023-05-07T01:22:32;9.70;99.90
29551;DHT22;16488;52.396;10.696;2023-05-07T01:24:58;9.80;99.90
29551;DHT22;16488;52.396;10.696;2023-05-07T01:27:25;9.70;99.90
29551;DHT22;16488;52.396;10.696;2023-05-07T01:29:50;9.70;99.90
29551;DHT22;16488;52.396;10.696;2023-05-07T01:32:16;9.70;99.90
29551;DHT22;16488;52.396;10.696;2023-05-07T01:34:44;9.70;99.90
29551;DHT22;16488;52.396;10.696;2023-05-07T01:37:10;9.80;99.90
29551;DHT22;16488;52.396;10.696;2023-05-07T01:39:37;9.80;99.90
29551;DHT22;16488;52.396;10.696;2023-05-07T01:42:03;9.70;99.90
29551;DHT22;16488;52.396;10.696;2023-05-07T01:44:29;9.70;99.90
29551;DHT22;16488;52.396;10.696;2023-05-07T01:46:55;9.60;99.90
29551;DHT22;16488;52.396;10.696;2023-05-07T01:49:21;9.60;99.90
29551;DHT22;16488;52.396;10.696;2023-05-07T01:51:46;9.50;99.90
29551;DHT22;16488;52.396;10.696;2023-05-07T01:54:12;9.60;99.90
29551;DHT22;16488;52.396;10.696;2023-05-07T01:56:37;9.70;99.90
29551;DHT22;16488;52.396;10.696;2023-05-07T01:59:03;9.70;99.90
29551;DHT22;16488;52.396;10.696;2023-05-07T02:01:28;9.70;99.90
29551;DHT22;16488;52.396;10.696;2023-05-07T02:03:54;9.70;99.90
29551;DHT22;16488;52.396;10.696;2023-05-07T02:06:19;9.70;99.90
29551;DHT22;16488;52.396;10.696;2023-05-07T02:08:45;9.70;99.90
29551;DHT22;16488;52.396;10.696;2023-05-07T02:11:11;9.60;99.90
29551;DHT22;16488;52.396;10.696;2023-05-07T02:13:36;9.60;99.90
29551;DHT22;16488;52.396;10.696;2023-05-07T02:16:02;9.60;99.90
29551;DHT22;16488;52.396;10.696;2023-05-07T02:18:28;9.60;99.90
29551;DHT22;16488;52.396;10.696;2023-05-07T02:20:53;9.60;99.90
29551;DHT22;16488;52.396;10.696;2023-05-07T02:23:18;9.60;99.90
29551;DHT22;16488;52.396;10.696;2023-05-07T02:25:44;9.50;99.90
29551;DHT22;16488;52.396;10.696;2023-05-07T02:28:10;9.50;99.90
29551;DHT22;16488;52.396;10.696;2023-05-07T02:30:36;9.50;99.90
29551;DHT22;16488;52.396;10.696;2023-05-07T02:33:02;9.50;99.90
29551;DHT22;16488;52.396;10.696;2023-05-07T02:35:27;9.50;99.90
29551;DHT22;16488;52.396;10.696;2023-05-07T02:37:53;9.50;99.90
29551;DHT22;16488;52.396;10.696;2023-05-07T02:40:18;9.50;99.90
29551;DHT22;16488;52.396;10.696;2023-05-07T02:42:44;9.50;99.90
29551;DHT22;16488;52.396;10.696;2023-05-07T02:45:09;9.50;99.90
29551;DHT22;16488;52.396;10.696;2023-05-07T02:47:35;9.60;99.90
29551;DHT22;16488;52.396;10.696;2023-05-07T02:50:00;9.50;99.90
29551;DHT22;16488;52.396;10.696;2023-05-07T02:52:26;9.60;99.90
29551;DHT22;16488;52.396;10.696;2023-05-07T02:54:51;9.60;99.90
29551;DHT22;16488;52.396;10.696;2023-05-07T02:57:17;9.60;99.90
29551;DHT22;16488;52.396;10.696;2023-05-07T02:59:42;9.60;99.90
29551;DHT22;16488;52.396;10.696;2023-05-07T03:02:08;9.50;99.90
29551;DHT22;16488;52.396;10.696;2023-05-07T03:04:33;9.50;99.90
29551;DHT22;16488;52.396;10.696;2023-05-07T03:06:59;9.50;99.90
29551;DHT22;16488;52.396;10.696;2023-05-07T03:09:24;9.50;99.90
29551;DHT22;16488;52.396;10.696;2023-05-07T03:11:50;9.50;99.90
29551;DHT22;16488;52.396;10.696;2023-05-07T03:14:15;9.50;99.90
29551;DHT22;16488;52.396;10.696;2023-05-07T03:16:41;9.50;99.90
29551;DHT22;16488;52.396;10.696;2023-05-07T03:19:06;9.50;99.90
29551;DHT22;16488;52.396;10.696;2023-05-07T03:21:32;9.40;99.90
29551;DHT22;16488;52.396;10.696;2023-05-07T03:23:59;9.40;99.90
29551;DHT22;16488;52.396;10.696;2023-05-07T03:26:24;9.40;99.90
29551;DHT22;16488;52.396;10.696;2023-05-07T03:28:50;9.30;99.90
29551;DHT22;16488;52.396;10.696;2023-05-07T03:31:16;9.30;99.90
29551;DHT22;16488;52.396;10.696;2023-05-07T03:33:54;9.30;99.90
29551;DHT22;16488;52.396;10.696;2023-05-07T03:36:20;9.30;99.90
29551;DHT22;16488;52.396;10.696;2023-05-07T03:38:46;9.40;99.90
29551;DHT22;16488;52.396;10.696;2023-05-07T03:41:12;9.40;99.90
29551;DHT22;16488;52.396;10.696;2023-05-07T03:43:37;9.40;99.90
29551;DHT22;16488;52.396;10.696;2023-05-07T03:46:03;9.50;99.90
29551;DHT22;16488;52.396;10.696;2023-05-07T03:48:28;9.40;99.90
29551;DHT22;16488;52.396;10.696;2023-05-07T03:50:54;9.40;99.90
29551;DHT22;16488;52.396;10.696;2023-05-07T03:53:19;9.40;99.90
29551;DHT22;16488;52.396;10.696;2023-05-07T03:55:45;9.40;99.90
29551;DHT22;16488;52.396;10.696;2023-05-07T03:58:10;9.40;99.90
29551;DHT22;16488;52.396;10.696;2023-05-07T04:00:36;9.40;99.90
29551;DHT22;16488;52.396;10.696;2023-05-07T04:03:03;9.40;99.90
29551;DHT22;16488;52.396;10.696;2023-05-07T04:05:29;9.40;99.90
29551;DHT22;16488;52.396;10.696;2023-05-07T04:07:55;9.40;99.90
29551;DHT22;16488;52.396;10.696;2023-05-07T04:10:21;9.30;99.90
29551;DHT22;16488;52.396;10.696;2023-05-07T04:12:46;9.30;99.90
29551;DHT22;16488;52.396;10.696;2023-05-07T04:15:12;9.40;99.90
29551;DHT22;16488;52.396;10.696;2023-05-07T04:17:37;9.40;99.90
29551;DHT22;16488;52.396;10.696;2023-05-07T04:20:03;9.40;99.90
29551;DHT22;16488;52.396;10.696;2023-05-07T04:22:29;9.40;99.90
29551;DHT22;16488;52.396;10.696;2023-05-07T04:24:54;9.50;99.90
29551;DHT22;16488;52.396;10.696;2023-05-07T04:27:20;9.50;99.90
29551;DHT22;16488;52.396;10.696;2023-05-07T04:29:46;9.50;99.90
29551;DHT22;16488;52.396;10.696;2023-05-07T04:32:12;9.50;99.90
29551;DHT22;16488;52.396;10.696;2023-05-07T04:34:38;9.60;99.90
29551;DHT22;16488;52.396;10.696;2023-05-07T04:37:04;9.50;99.90
29551;DHT22;16488;52.396;10.696;2023-05-07T04:39:29;9.50;99.90
29551;DHT22;16488;52.396;10.696;2023-05-07T04:41:54;9.50;99.90
29551;DHT22;16488;52.396;10.696;2023-05-07T04:44:20;9.40;99.90
29551;DHT22;16488;52.396;10.696;2023-05-07T04:46:46;9.40;99.90
29551;DHT22;16488;52.396;10.696;2023-05-07T04:49:11;9.40;99.90
29551;DHT22;16488;52.396;10.696;2023-05-07T04:51:37;9.40;99.90
29551;DHT22;16488;52.396;10.696;2023-05-07T04:54:03;9.40;99.90
29551;DHT22;16488;52.396;10.696;2023-05-07T04:56:29;9.50;99.90
29551;DHT22;16488;52.396;10.696;2023-05-07T04:58:58;9.40;99.90
29551;DHT22;16488;52.396;10.696;2023-05-07T05:01:24;9.40;99.90
29551;DHT22;16488;52.396;10.696;2023-05-07T05:03:49;9.40;99.90
29551;DHT22;16488;52.396;10.696;2023-05-07T05:06:15;9.30;99.90
29551;DHT22;16488;52.396;10.696;2023-05-07T05:08:40;9.30;99.90
29551;DHT22;16488;52.396;10.696;2023-05-07T05:11:06;9.30;99.90
29551;DHT22;16488;52.396;10.696;2023-05-07T05:13:31;9.40;99.90
29551;DHT22;16488;52.396;10.696;2023-05-07T05:15:57;9.40;99.90
29551;DHT22;16488;52.396;10.696;2023-05-07T05:18:22;9.50;99.90
29551;DHT22;16488;52.396;10.696;2023-05-07T05:20:48;9.50;99.90
29551;DHT22;16488;52.396;10.696;2023-05-07T05:23:13;9.60;99.90
29551;DHT22;16488;52.396;10.696;2023-05-07T05:25:39;9.60;99.90
29551;DHT22;16488;52.396;10.696;2023-05-07T05:28:05;9.60;99.90
29551;DHT22;16488;52.396;10.696;2023-05-07T05:30:30;9.60;99.90
29551;DHT22;16488;52.396;10.696;2023-05-07T05:32:56;9.60;99.90
29551;DHT22;16488;52.396;10.696;2023-05-07T05:35:21;9.60;99.90
29551;DHT22;16488;52.396;10.696;2023-05-07T05:37:47;9.60;99.90
29551;DHT22;16488;52.396;10.696;2023-05-07T05:40:13;9.60;99.90
29551;DHT22;16488;52.396;10.696;2023-05-07T05:42:38;9.50;99.90
29551;DHT22;16488;52.396;10.696;2023-05-07T05:45:04;9.50;99.90
29551;DHT22;16488;52.396;10.696;2023-05-07T05:47:30;9.50;99.90
29551;DHT22;16488;52.396;10.696;2023-05-07T05:49:55;9.60;99.90
29551;DHT22;16488;52.396;10.696;2023-05-07T05:52:21;9.60;99.90
29551;DHT22;16488;52.396;10.696;2023-05-07T05:54:49;9.50;99.90
29551;DHT22;16488;52.396;10.696;2023-05-07T05:57:14;9.50;99.90
29551;DHT22;16488;52.396;10.696;2023-05-07T05:59:40;9.60;99.90
29551;DHT22;16488;52.396;10.696;2023-05-07T06:02:05;9.60;99.90
29551;DHT22;16488;52.396;10.696;2023-05-07T06:04:31;9.70;99.90
29551;DHT22;16488;52.396;10.696;2023-05-07T06:06:57;9.70;99.90
29551;DHT22;16488;52.396;10.696;2023-05-07T06:09:22;9.60;99.90
29551;DHT22;16488;52.396;10.696;2023-05-07T06:11:48;9.70;99.90
29551;DHT22;16488;52.396;10.696;2023-05-07T06:14:13;9.70;99.90
29551;DHT22;16488;52.396;10.696;2023-05-07T06:16:39;9.60;99.90
29551;DHT22;16488;52.396;10.696;2023-05-07T06:19:04;9.60;99.90
29551;DHT22;16488;52.396;10.696;2023-05-07T06:21:30;9.60;99.90
29551;DHT22;16488;52.396;10.696;2023-05-07T06:23:56;9.50;99.90
29551;DHT22;16488;52.396;10.696;2023-05-07T06:26:21;9.50;99.90
29551;DHT22;16488;52.396;10.696;2023-05-07T06:28:47;9.50;99.90
29551;DHT22;16488;52.396;10.696;2023-05-07T06:33:38;9.60;99.90
29551;DHT22;16488;52.396;10.696;2023-05-07T06:36:04;9.70;99.90
29551;DHT22;16488;52.396;10.696;2023-05-07T06:38:30;9.70;99.90
29551;DHT22;16488;52.396;10.696;2023-05-07T06:40:55;9.70;99.90
29551;DHT22;16488;52.396;10.696;2023-05-07T06:43:22;9.70;99.90
29551;DHT22;16488;52.396;10.696;2023-05-07T06:45:47;9.60;99.90
29551;DHT22;16488;52.396;10.696;2023-05-07T06:48:13;9.60;99.90
29551;DHT22;16488;52.396;10.696;2023-05-07T06:50:38;9.60;99.90
29551;DHT22;16488;52.396;10.696;2023-05-07T06:53:04;9.60;99.90
29551;DHT22;16488;52.396;10.696;2023-05-07T06:55:30;9.60;99.90
29551;DHT22;16488;52.396;10.696;2023-05-07T06:57:55;9.60;99.90
29551;DHT22;16488;52.396;10.696;2023-05-07T07:00:23;9.70;99.90
29551;DHT22;16488;52.396;10.696;2023-05-07T07:02:48;9.70;99.90
29551;DHT22;16488;52.396;10.696;2023-05-07T07:05:14;9.70;99.90
29551;DHT22;16488;52.396;10.696;2023-05-07T07:07:39;9.70;99.90
29551;DHT22;16488;52.396;10.696;2023-05-07T07:10:05;9.80;99.90
29551;DHT22;16488;52.396;10.696;2023-05-07T07:12:31;9.70;99.90
29551;DHT22;16488;52.396;10.696;2023-05-07T07:14:56;9.80;99.90
29551;DHT22;16488;52.396;10.696;2023-05-07T07:17:22;9.80;99.90
29551;DHT22;16488;52.396;10.696;2023-05-07T07:19:47;9.90;99.90
29551;DHT22;16488;52.396;10.696;2023-05-07T07:22:13;9.80;99.90
29551;DHT22;16488;52.396;10.696;2023-05-07T07:24:38;9.80;99.90
29551;DHT22;16488;52.396;10.696;2023-05-07T07:27:04;9.90;99.90
29551;DHT22;16488;52.396;10.696;2023-05-07T07:29:30;9.90;99.90
29551;DHT22;16488;52.396;10.696;2023-05-07T07:31:55;9.90;99.90
29551;DHT22;16488;52.396;10.696;2023-05-07T07:34:21;9.90;99.90
29551;DHT22;16488;52.396;10.696;2023-05-07T07:36:47;10.00;99.90
29551;DHT22;16488;52.396;10.696;2023-05-07T07:39:12;10.00;99.90
29551;DHT22;16488;52.396;10.696;2023-05-07T07:41:38;10.00;99.90
29551;DHT22;16488;52.396;10.696;2023-05-07T07:44:03;10.00;99.90
29551;DHT22;16488;52.396;10.696;2023-05-07T07:46:32;10.00;99.90
29551;DHT22;16488;52.396;10.696;2023-05-07T07:48:57;10.00;99.90
29551;DHT22;16488;52.396;10.696;2023-05-07T07:51:25;10.00;99.90
29551;DHT22;16488;52.396;10.696;2023-05-07T07:53:50;10.00;99.90
29551;DHT22;16488;52.396;10.696;2023-05-07T07:56:16;10.00;99.90
29551;DHT22;16488;52.396;10.696;2023-05-07T07:58:41;10.10;99.90
29551;DHT22;16488;52.396;10.696;2023-05-07T08:01:07;10.10;99.90
29551;DHT22;16488;52.396;10.696;2023-05-07T08:03:32;10.10;99.90
29551;DHT22;16488;52.396;10.696;2023-05-07T08:05:58;10.10;99.90
29551;DHT22;16488;52.396;10.696;2023-05-07T08:08:23;10.20;99.90
29551;DHT22;16488;52.396;10.696;2023-05-07T08:10:49;10.20;99.90
29551;DHT22;16488;52.396;10.696;2023-05-07T08:13:15;10.20;99.90
29551;DHT22;16488;52.396;10.696;2023-05-07T08:15:41;10.20;99.90
29551;DHT22;16488;52.396;10.696;2023-05-07T08:18:06;10.20;99.90
29551;DHT22;16488;52.396;10.696;2023-05-07T08:20:32;10.20;99.90
29551;DHT22;16488;52.396;10.696;2023-05-07T08:22:58;10.20;99.90
29551;DHT22;16488;52.396;10.696;2023-05-07T08:25:24;10.30;99.90
29551;DHT22;16488;52.396;10.696;2023-05-07T08:27:49;10.30;99.90
29551;DHT22;16488;52.396;10.696;2023-05-07T08:30:15;10.30;99.90
29551;DHT22;16488;52.396;10.696;2023-05-07T08:32:41;10.30;99.90
29551;DHT22;16488;52.396;10.696;2023-05-07T08:35:06;10.30;99.90
29551;DHT22;16488;52.396;10.696;2023-05-07T08:37:32;10.40;99.90
29551;DHT22;16488;52.396;10.696;2023-05-07T08:39:57;10.40;99.90
29551;DHT22;16488;52.396;10.696;2023-05-07T08:42:23;10.40;99.90
29551;DHT22;16488;52.396;10.696;2023-05-07T08:44:50;10.40;99.90
29551;DHT22;16488;52.396;10.696;2023-05-07T08:47:18;10.40;99.90
29551;DHT22;16488;52.396;10.696;2023-05-07T08:49:44;10.40;99.90
29551;DHT22;16488;52.396;10.696;2023-05-07T08:52:11;10.50;99.90
29551;DHT22;16488;52.396;10.696;2023-05-07T08:54:37;10.50;99.90
29551;DHT22;16488;52.396;10.696;2023-05-07T08:57:03;10.60;99.90
29551;DHT22;16488;52.396;10.696;2023-05-07T08:59:28;10.60;99.90
29551;DHT22;16488;52.396;10.696;2023-05-07T09:01:54;10.60;99.90
29551;DHT22;16488;52.396;10.696;2023-05-07T09:04:19;10.70;99.90
29551;DHT22;16488;52.396;10.696;2023-05-07T09:06:45;10.60;99.90
29551;DHT22;16488;52.396;10.696;2023-05-07T09:09:21;10.70;99.90
29551;DHT22;16488;52.396;10.696;2023-05-07T09:11:52;10.70;99.90
29551;DHT22;16488;52.396;10.696;2023-05-07T09:14:21;10.80;99.90
29551;DHT22;16488;52.396;10.696;2023-05-07T09:16:47;10.80;99.90
29551;DHT22;16488;52.396;10.696;2023-05-07T09:19:12;10.90;99.90
29551;DHT22;16488;52.396;10.696;2023-05-07T09:21:38;11.00;99.90
29551;DHT22;16488;52.396;10.696;2023-05-07T09:24:03;11.10;99.90
29551;DHT22;16488;52.396;10.696;2023-05-07T09:26:29;11.10;99.90
29551;DHT22;16488;52.396;10.696;2023-05-07T09:28:55;11.10;99.90
29551;DHT22;16488;52.396;10.696;2023-05-07T09:31:20;11.20;99.90
29551;DHT22;16488;52.396;10.696;2023-05-07T09:33:48;11.20;99.90
29551;DHT22;16488;52.396;10.696;2023-05-07T09:36:14;11.20;99.90
29551;DHT22;16488;52.396;10.696;2023-05-07T09:38:39;11.20;99.90
29551;DHT22;16488;52.396;10.696;2023-05-07T09:41:09;11.20;99.90
29551;DHT22;16488;52.396;10.696;2023-05-07T09:43:35;11.20;99.90
29551;DHT22;16488;52.396;10.696;2023-05-07T09:46:14;11.30;99.90
29551;DHT22;16488;52.396;10.696;2023-05-07T09:48:41;11.20;99.90
29551;DHT22;16488;52.396;10.696;2023-05-07T09:51:11;11.20;99.90
29551;DHT22;16488;52.396;10.696;2023-05-07T09:53:38;11.30;99.90
29551;DHT22;16488;52.396;10.696;2023-05-07T09:56:05;11.30;99.90
29551;DHT22;16488;52.396;10.696;2023-05-07T09:58:31;11.30;99.90
29551;DHT22;16488;52.396;10.696;2023-05-07T10:00:57;11.40;99.90
29551;DHT22;16488;52.396;10.696;2023-05-07T10:03:23;11.40;99.90
29551;DHT22;16488;52.396;10.696;2023-05-07T10:05:49;11.40;99.90
29551;DHT22;16488;52.396;10.696;2023-05-07T10:08:15;11.50;99.90
29551;DHT22;16488;52.396;10.696;2023-05-07T10:10:42;11.40;99.90
29551;DHT22;16488;52.396;10.696;2023-05-07T10:13:07;11.30;99.90
29551;DHT22;16488;52.396;10.696;2023-05-07T10:15:36;11.30;99.90
29551;DHT22;16488;52.396;10.696;2023-05-07T10:18:02;11.40;99.90
29551;DHT22;16488;52.396;10.696;2023-05-07T10:20:28;11.50;99.90
29551;DHT22;16488;52.396;10.696;2023-05-07T10:22:54;11.50;99.90
29551;DHT22;16488;52.396;10.696;2023-05-07T10:25:22;11.50;99.90
29551;DHT22;16488;52.396;10.696;2023-05-07T10:27:48;11.50;99.90
29551;DHT22;16488;52.396;10.696;2023-05-07T10:30:22;11.60;99.90
29551;DHT22;16488;52.396;10.696;2023-05-07T10:32:49;11.70;99.90
29551;DHT22;16488;52.396;10.696;2023-05-07T10:35:20;11.70;99.90
29551;DHT22;16488;52.396;10.696;2023-05-07T10:37:46;11.80;99.90
29551;DHT22;16488;52.396;10.696;2023-05-07T10:40:13;11.80;99.90
29551;DHT22;16488;52.396;10.696;2023-05-07T10:42:44;11.90;99.90
29551;DHT22;16488;52.396;10.696;2023-05-07T10:45:18;11.90;99.90
29551;DHT22;16488;52.396;10.696;2023-05-07T10:50:28;12.00;99.90
29551;DHT22;16488;52.396;10.696;2023-05-07T10:55:37;12.20;99.90
29551;DHT22;16488;52.396;10.696;2023-05-07T10:58:45;12.20;99.90
29551;DHT22;16488;52.396;10.696;2023-05-07T11:00:58;12.30;99.90
29551;DHT22;16488;52.396;10.696;2023-05-07T11:03:24;12.30;99.90
29551;DHT22;16488;52.396;10.696;2023-05-07T11:06:10;12.20;99.90
29551;DHT22;16488;52.396;10.696;2023-05-07T11:11:17;12.30;99.90
29551;DHT22;16488;52.396;10.696;2023-05-07T11:13:43;12.20;99.90
29551;DHT22;16488;52.396;10.696;2023-05-07T11:16:19;12.10;99.90
29551;DHT22;16488;52.396;10.696;2023-05-07T11:18:53;12.10;99.90
29551;DHT22;16488;52.396;10.696;2023-05-07T11:24:03;11.90;99.90
29551;DHT22;16488;52.396;10.696;2023-05-07T11:26:30;11.90;99.90
29551;DHT22;16488;52.396;10.696;2023-05-07T11:28:56;11.90;99.90
29551;DHT22;16488;52.396;10.696;2023-05-07T11:31:25;11.90;99.90
29551;DHT22;16488;52.396;10.696;2023-05-07T11:33:51;11.90;99.90
29551;DHT22;16488;52.396;10.696;2023-05-07T11:36:17;11.90;99.90
29551;DHT22;16488;52.396;10.696;2023-05-07T11:38:43;11.80;99.90
29551;DHT22;16488;52.396;10.696;2023-05-07T11:41:08;11.80;99.90
29551;DHT22;16488;52.396;10.696;2023-05-07T11:43:34;12.00;99.90
29551;DHT22;16488;52.396;10.696;2023-05-07T11:46:08;12.00;99.90
29551;DHT22;16488;52.396;10.696;2023-05-07T11:48:33;12.20;99.90
29551;DHT22;16488;52.396;10.696;2023-05-07T11:51:00;12.20;99.90
29551;DHT22;16488;52.396;10.696;2023-05-07T11:53:26;12.30;99.90
29551;DHT22;16488;52.396;10.696;2023-05-07T11:55:52;12.30;99.90
29551;DHT22;16488;52.396;10.696;2023-05-07T11:58:22;12.40;99.90
29551;DHT22;16488;52.396;10.696;2023-05-07T12:00:48;12.50;99.90
29551;DHT22;16488;52.396;10.696;2023-05-07T12:03:13;12.80;99.90
29551;DHT22;16488;52.396;10.696;2023-05-07T12:05:39;13.00;99.90
29551;DHT22;16488;52.396;10.696;2023-05-07T12:08:07;13.20;99.90
29551;DHT22;16488;52.396;10.696;2023-05-07T12:10:32;13.30;99.90
29551;DHT22;16488;52.396;10.696;2023-05-07T12:12:58;13.40;99.90
29551;DHT22;16488;52.396;10.696;2023-05-07T12:15:23;13.30;99.90
29551;DHT22;16488;52.396;10.696;2023-05-07T12:17:49;13.20;99.90
29551;DHT22;16488;52.396;10.696;2023-05-07T12:20:15;13.10;99.90
29551;DHT22;16488;52.396;10.696;2023-05-07T12:22:40;13.10;99.90
29551;DHT22;16488;52.396;10.696;2023-05-07T12:25:06;13.00;99.90
29551;DHT22;16488;52.396;10.696;2023-05-07T12:27:32;13.10;99.90
29551;DHT22;16488;52.396;10.696;2023-05-07T12:29:57;13.20;99.90
29551;DHT22;16488;52.396;10.696;2023-05-07T12:32:23;13.10;99.90
29551;DHT22;16488;52.396;10.696;2023-05-07T12:34:51;13.10;99.90
29551;DHT22;16488;52.396;10.696;2023-05-07T12:37:22;13.20;99.90
29551;DHT22;16488;52.396;10.696;2023-05-07T12:39:48;13.30;99.90
29551;DHT22;16488;52.396;10.696;2023-05-07T12:42:14;13.40;99.90
29551;DHT22;16488;52.396;10.696;2023-05-07T12:44:40;13.40;99.90
29551;DHT22;16488;52.396;10.696;2023-05-07T12:47:06;13.40;99.90
29551;DHT22;16488;52.396;10.696;2023-05-07T12:49:34;13.40;99.90
29551;DHT22;16488;52.396;10.696;2023-05-07T12:51:59;13.30;99.90
29551;DHT22;16488;52.396;10.696;2023-05-07T12:54:28;13.40;99.90
29551;DHT22;16488;52.396;10.696;2023-05-07T12:57:01;13.50;99.90
29551;DHT22;16488;52.396;10.696;2023-05-07T12:59:30;13.40;99.90
29551;DHT22;16488;52.396;10.696;2023-05-07T13:01:56;13.50;99.90
29551;DHT22;16488;52.396;10.696;2023-05-07T13:04:24;13.50;99.90
29551;DHT22;16488;52.396;10.696;2023-05-07T13:06:49;13.50;99.90
29551;DHT22;16488;52.396;10.696;2023-05-07T13:09:15;13.50;99.90
29551;DHT22;16488;52.396;10.696;2023-05-07T13:11:40;13.50;99.90
29551;DHT22;16488;52.396;10.696;2023-05-07T13:14:06;13.60;99.90
29551;DHT22;16488;52.396;10.696;2023-05-07T13:16:31;13.80;99.90
29551;DHT22;16488;52.396;10.696;2023-05-07T13:18:57;13.90;99.90
29551;DHT22;16488;52.396;10.696;2023-05-07T13:21:22;14.00;99.90
29551;DHT22;16488;52.396;10.696;2023-05-07T13:23:48;14.10;99.90
29551;DHT22;16488;52.396;10.696;2023-05-07T13:26:13;14.20;99.90
29551;DHT22;16488;52.396;10.696;2023-05-07T13:28:39;14.10;99.90
29551;DHT22;16488;52.396;10.696;2023-05-07T13:31:04;14.00;99.90
29551;DHT22;16488;52.396;10.696;2023-05-07T13:33:30;14.00;99.90
29551;DHT22;16488;52.396;10.696;2023-05-07T13:35:55;13.90;99.90
29551;DHT22;16488;52.396;10.696;2023-05-07T13:38:22;13.80;99.90
29551;DHT22;16488;52.396;10.696;2023-05-07T13:40:47;13.80;99.90
29551;DHT22;16488;52.396;10.696;2023-05-07T13:43:13;13.80;99.90
29551;DHT22;16488;52.396;10.696;2023-05-07T13:45:39;13.90;99.90
29551;DHT22;16488;52.396;10.696;2023-05-07T13:48:05;14.10;99.90
29551;DHT22;16488;52.396;10.696;2023-05-07T13:50:31;14.10;99.90
29551;DHT22;16488;52.396;10.696;2023-05-07T13:52:56;14.00;99.90
29551;DHT22;16488;52.396;10.696;2023-05-07T13:55:23;14.00;99.90
29551;DHT22;16488;52.396;10.696;2023-05-07T13:57:54;13.90;99.90
29551;DHT22;16488;52.396;10.696;2023-05-07T14:00:20;13.90;99.90
29551;DHT22;16488;52.396;10.696;2023-05-07T14:02:46;14.10;99.90
29551;DHT22;16488;52.396;10.696;2023-05-07T14:05:12;14.10;99.90
29551;DHT22;16488;52.396;10.696;2023-05-07T14:07:38;14.10;99.90
29551;DHT22;16488;52.396;10.696;2023-05-07T14:10:04;13.90;99.90
29551;DHT22;16488;52.396;10.696;2023-05-07T14:12:31;14.00;99.90
29551;DHT22;16488;52.396;10.696;2023-05-07T14:14:56;14.20;99.90
29551;DHT22;16488;52.396;10.696;2023-05-07T14:17:22;14.40;99.90
29551;DHT22;16488;52.396;10.696;2023-05-07T14:19:50;14.50;99.90
29551;DHT22;16488;52.396;10.696;2023-05-07T14:22:16;14.70;99.90
29551;DHT22;16488;52.396;10.696;2023-05-07T14:24:41;14.80;99.90
29551;DHT22;16488;52.396;10.696;2023-05-07T14:27:07;15.00;99.90
29551;DHT22;16488;52.396;10.696;2023-05-07T14:29:32;15.10;99.90
29551;DHT22;16488;52.396;10.696;2023-05-07T14:31:58;14.90;99.90
29551;DHT22;16488;52.396;10.696;2023-05-07T14:34:23;14.80;99.90
29551;DHT22;16488;52.396;10.696;2023-05-07T14:36:49;14.70;99.90
29551;DHT22;16488;52.396;10.696;2023-05-07T14:39:14;14.50;99.90
29551;DHT22;16488;52.396;10.696;2023-05-07T14:41:40;14.40;99.90
29551;DHT22;16488;52.396;10.696;2023-05-07T14:44:05;14.40;99.90
29551;DHT22;16488;52.396;10.696;2023-05-07T14:46:31;14.30;99.90
29551;DHT22;16488;52.396;10.696;2023-05-07T14:48:57;14.40;99.90
29551;DHT22;16488;52.396;10.696;2023-05-07T14:51:22;14.50;99.90
29551;DHT22;16488;52.396;10.696;2023-05-07T14:53:49;14.80;99.90
29551;DHT22;16488;52.396;10.696;2023-05-07T14:56:15;15.20;99.90
29551;DHT22;16488;52.396;10.696;2023-05-07T14:58:40;15.50;99.90
29551;DHT22;16488;52.396;10.696;2023-05-07T15:01:06;15.40;99.90
29551;DHT22;16488;52.396;10.696;2023-05-07T15:03:31;15.10;99.90
29551;DHT22;16488;52.396;10.696;2023-05-07T15:05:57;15.20;99.90
29551;DHT22;16488;52.396;10.696;2023-05-07T15:08:22;15.20;99.90
29551;DHT22;16488;52.396;10.696;2023-05-07T15:10:48;15.10;99.90
29551;DHT22;16488;52.396;10.696;2023-05-07T15:13:14;15.20;99.90
29551;DHT22;16488;52.396;10.696;2023-05-07T15:15:39;15.10;99.90
29551;DHT22;16488;52.396;10.696;2023-05-07T15:18:05;15.20;99.90
29551;DHT22;16488;52.396;10.696;2023-05-07T15:20:30;15.40;99.90
29551;DHT22;16488;52.396;10.696;2023-05-07T15:22:56;15.30;99.90
29551;DHT22;16488;52.396;10.696;2023-05-07T15:25:22;15.20;99.90
29551;DHT22;16488;52.396;10.696;2023-05-07T15:27:48;15.30;99.90
29551;DHT22;16488;52.396;10.696;2023-05-07T15:30:13;15.40;99.90